createdAt,value
2023-05-03T00:00:23.728Z,3.83
2023-05-03T00:01:55.875Z,3.70
2023-05-03T00:03:32.126Z,3.63
2023-05-03T00:05:05.907Z,3.75
2023-05-03T00:06:39.021Z,3.42
2023-05-03T00:08:11.374Z,3.38
2023-05-03T00:09:43.518Z,3.75
2023-05-03T00:11:15.567Z,3.53
2023-05-03T00:12:47.656Z,3.72
2023-05-03T00:14:19.945Z,3.35
2023-05-03T00:15:51.982Z,3.40
2023-05-03T00:17:24.114Z,3.20
2023-05-03T00:18:56.241Z,3.40
2023-05-03T00:20:28.353Z,3.15
2023-05-03T00:22:00.708Z,3.05
2023-05-03T00:23:32.777Z,3.50
2023-05-03T00:25:05.169Z,3.38
2023-05-03T00:26:37.245Z,3.38
2023-05-03T00:28:09.520Z,3.40
2023-05-03T00:29:41.614Z,3.22
2023-05-03T00:31:13.775Z,3.20
2023-05-03T00:32:45.912Z,4.07
2023-05-03T00:34:18.142Z,3.58
2023-05-03T00:35:50.254Z,3.58
2023-05-03T00:37:22.846Z,3.58
2023-05-03T00:38:55.469Z,3.30
2023-05-03T00:40:27.603Z,3.35
2023-05-03T00:42:00.579Z,3.50
2023-05-03T00:43:33.008Z,3.22
2023-05-03T00:45:06.512Z,2.97
2023-05-03T00:48:10.777Z,3.45
2023-05-03T00:49:43.126Z,2.95
2023-05-03T00:51:16.032Z,3.25
2023-05-03T00:52:48.130Z,3.47
2023-05-03T00:54:21.172Z,3.30
2023-05-03T00:55:53.987Z,3.67
2023-05-03T00:57:27.010Z,3.10
2023-05-03T00:58:59.065Z,3.58
2023-05-03T01:00:32.827Z,3.30
2023-05-03T01:02:04.964Z,3.70
2023-05-03T01:03:38.108Z,3.50
2023-05-03T01:05:11.328Z,3.53
2023-05-03T01:07:22.448Z,3.40
2023-05-03T01:09:00.962Z,3.30
2023-05-03T01:11:11.997Z,3.08
2023-05-03T01:13:23.816Z,3.63
2023-05-03T01:15:14.450Z,3.30
2023-05-03T01:16:56.478Z,3.10
2023-05-03T01:18:34.857Z,3.15
2023-05-03T01:20:09.155Z,3.17
2023-05-03T01:21:43.689Z,3.35
2023-05-03T01:23:26.579Z,3.13
2023-05-03T01:26:31.530Z,2.83
2023-05-03T01:28:03.810Z,3.28
2023-05-03T01:29:36.429Z,3.13
2023-05-03T01:31:11.278Z,3.33
2023-05-03T01:32:58.535Z,3.30
2023-05-03T01:34:51.679Z,3.20
2023-05-03T01:36:28.328Z,3.20
2023-05-03T01:38:01.050Z,3.60
2023-05-03T01:39:39.352Z,3.30
2023-05-03T01:41:12.958Z,3.35
2023-05-03T01:42:45.038Z,3.53
2023-05-03T01:44:17.132Z,3.70
2023-05-03T01:45:49.519Z,3.38
2023-05-03T01:47:21.787Z,3.22
2023-05-03T01:48:53.772Z,3.50
2023-05-03T01:50:26.244Z,3.42
2023-05-03T01:51:58.307Z,3.22
2023-05-03T01:53:30.441Z,3.72
2023-05-03T01:55:02.516Z,3.40
2023-05-03T01:56:35.998Z,3.30
2023-05-03T01:59:40.176Z,3.30
2023-05-03T02:01:12.274Z,3.50
2023-05-03T02:02:44.333Z,3.65
2023-05-03T02:04:16.482Z,3.60
2023-05-03T02:05:49.124Z,3.70
2023-05-03T02:07:21.301Z,4.15
2023-05-03T02:08:54.794Z,3.30
2023-05-03T02:11:59.054Z,3.30
2023-05-03T02:13:31.165Z,3.28
2023-05-03T02:15:03.304Z,3.75
2023-05-03T02:16:35.344Z,3.78
2023-05-03T02:18:09.044Z,4.10
2023-05-03T02:19:41.124Z,3.38
2023-05-03T02:21:13.634Z,3.60
2023-05-03T02:22:45.696Z,3.17
2023-05-03T02:24:18.044Z,3.45
2023-05-03T02:25:50.190Z,3.75
2023-05-03T02:27:22.151Z,3.42
2023-05-03T02:28:54.337Z,3.50
2023-05-03T02:30:26.594Z,3.78
2023-05-03T02:31:58.886Z,3.60
2023-05-03T02:33:30.982Z,3.55
2023-05-03T02:35:03.371Z,3.70
2023-05-03T02:36:35.551Z,3.63
2023-05-03T02:38:10.728Z,3.95
2023-05-03T02:39:42.771Z,4.00
2023-05-03T02:41:14.993Z,3.50
2023-05-03T02:42:47.098Z,3.40
2023-05-03T02:44:19.188Z,3.70
2023-05-03T02:45:51.289Z,4.07
2023-05-03T02:47:24.060Z,3.92
2023-05-03T02:48:56.326Z,3.63
2023-05-03T02:50:28.569Z,4.07
2023-05-03T02:52:00.833Z,4.00
2023-05-03T02:53:32.913Z,3.85
2023-05-03T02:55:06.176Z,3.70
2023-05-03T02:56:38.763Z,3.60
2023-05-03T02:58:10.882Z,3.33
2023-05-03T02:59:42.982Z,3.70
2023-05-03T03:01:15.224Z,3.45
2023-05-03T03:02:47.447Z,3.40
2023-05-03T03:04:19.668Z,3.90
2023-05-03T03:05:51.811Z,3.50
2023-05-03T03:07:23.980Z,3.60
2023-05-03T03:08:56.252Z,3.58
2023-05-03T03:10:28.357Z,3.45
2023-05-03T03:12:03.283Z,3.67
2023-05-03T03:13:40.001Z,3.33
2023-05-03T03:15:12.325Z,4.43
2023-05-03T03:16:46.336Z,3.70
2023-05-03T03:18:19.738Z,3.80
2023-05-03T03:19:51.981Z,3.50
2023-05-03T03:21:24.134Z,4.10
2023-05-03T03:22:56.327Z,3.88
2023-05-03T03:24:28.472Z,4.05
2023-05-03T03:26:00.766Z,3.80
2023-05-03T03:27:33.641Z,3.30
2023-05-03T03:29:05.733Z,3.75
2023-05-03T03:30:37.820Z,4.43
2023-05-03T03:32:09.941Z,3.60
2023-05-03T03:33:42.157Z,4.20
2023-05-03T03:35:15.048Z,3.75
2023-05-03T03:36:47.319Z,4.32
2023-05-03T03:38:19.761Z,4.25
2023-05-03T03:39:51.822Z,5.03
2023-05-03T03:41:23.985Z,4.57
2023-05-03T03:42:56.160Z,4.40
2023-05-03T03:44:28.309Z,4.88
2023-05-03T03:46:00.419Z,4.80
2023-05-03T03:47:33.287Z,4.95
2023-05-03T03:49:05.431Z,4.53
2023-05-03T03:50:37.834Z,4.30
2023-05-03T03:52:09.986Z,4.70
2023-05-03T03:53:42.438Z,4.40
2023-05-03T03:55:14.683Z,3.65
2023-05-03T03:56:46.732Z,4.57
2023-05-03T03:59:54.687Z,4.32
2023-05-03T04:01:27.383Z,5.00
2023-05-03T04:02:59.595Z,4.72
2023-05-03T04:04:32.372Z,4.88
2023-05-03T04:06:04.701Z,4.60
2023-05-03T04:07:36.867Z,5.35
2023-05-03T04:09:09.570Z,4.88
2023-05-03T04:10:41.827Z,5.20
2023-05-03T04:12:14.172Z,4.75
2023-05-03T04:13:46.279Z,4.80
2023-05-03T04:15:18.480Z,4.88
2023-05-03T04:16:50.749Z,4.25
2023-05-03T04:18:23.442Z,4.03
2023-05-03T04:19:56.257Z,4.28
2023-05-03T04:21:28.792Z,4.63
2023-05-03T04:23:01.221Z,4.27
2023-05-03T04:24:33.375Z,4.90
2023-05-03T04:26:05.577Z,4.80
2023-05-03T04:27:38.685Z,5.13
2023-05-03T04:29:12.076Z,4.20
2023-05-03T04:30:45.478Z,4.30
2023-05-03T04:33:49.567Z,4.13
2023-05-03T04:35:21.860Z,4.38
2023-05-03T04:36:53.935Z,4.13
2023-05-03T04:38:26.022Z,4.50
2023-05-03T04:39:58.248Z,4.68
2023-05-03T04:41:30.560Z,4.50
2023-05-03T04:43:02.648Z,3.97
2023-05-03T04:44:34.780Z,4.57
2023-05-03T04:46:07.101Z,4.43
2023-05-03T04:47:39.514Z,4.40
2023-05-03T04:49:11.733Z,4.60
2023-05-03T04:50:43.848Z,4.85
2023-05-03T04:52:15.982Z,4.55
2023-05-03T04:53:48.186Z,4.40
2023-05-03T04:55:20.270Z,5.05
2023-05-03T04:56:53.150Z,4.93
2023-05-03T04:58:25.439Z,5.63
2023-05-03T04:59:57.663Z,5.50
2023-05-03T05:01:30.309Z,6.93
2023-05-03T05:03:06.809Z,7.10
2023-05-03T05:04:39.017Z,7.10
2023-05-03T05:06:12.808Z,6.97
2023-05-03T05:07:44.944Z,5.80
2023-05-03T05:09:29.056Z,5.68
2023-05-03T05:11:04.913Z,6.50
2023-05-03T05:12:36.974Z,6.85
2023-05-03T05:14:09.377Z,5.60
2023-05-03T05:15:41.531Z,6.15
2023-05-03T05:17:13.625Z,6.15
2023-05-03T05:18:46.374Z,5.95
2023-05-03T05:20:20.991Z,5.80
2023-05-03T05:21:53.285Z,6.32
2023-05-03T05:23:25.387Z,5.50
2023-05-03T05:24:57.705Z,5.70
2023-05-03T05:26:29.917Z,5.55
2023-05-03T05:28:01.987Z,5.70
2023-05-03T05:29:34.087Z,5.85
2023-05-03T05:31:06.255Z,5.90
2023-05-03T05:32:38.494Z,5.72
2023-05-03T05:34:10.887Z,6.10
2023-05-03T05:35:43.045Z,6.10
2023-05-03T05:37:15.448Z,6.07
2023-05-03T05:38:47.539Z,5.70
2023-05-03T05:40:19.632Z,5.80
2023-05-03T05:41:51.839Z,5.10
2023-05-03T05:43:24.016Z,5.10
2023-05-03T05:44:57.603Z,4.90
2023-05-03T05:46:30.084Z,4.57
2023-05-03T05:48:02.661Z,4.80
2023-05-03T05:49:34.928Z,5.27
2023-05-03T05:51:07.091Z,8.20
2023-05-03T05:52:39.237Z,4.70
2023-05-03T05:54:11.836Z,5.93
2023-05-03T05:55:43.917Z,7.63
2023-05-03T05:57:16.147Z,8.02
2023-05-03T05:58:48.328Z,6.20
2023-05-03T06:00:21.930Z,6.22
2023-05-03T06:01:54.062Z,5.05
2023-05-03T06:03:26.550Z,5.63
2023-05-03T06:04:58.760Z,6.05
2023-05-03T06:06:31.880Z,7.10
2023-05-03T06:08:04.530Z,7.47
2023-05-03T06:09:38.876Z,7.38
2023-05-03T06:11:14.496Z,7.05
2023-05-03T06:12:46.576Z,6.68
2023-05-03T06:14:21.061Z,6.85
2023-05-03T06:15:54.205Z,6.50
2023-05-03T06:17:27.362Z,6.70
2023-05-03T06:18:59.944Z,6.50
2023-05-03T06:20:32.091Z,6.40
2023-05-03T06:22:05.761Z,6.50
2023-05-03T06:23:40.099Z,6.60
2023-05-03T06:25:16.269Z,6.93
2023-05-03T06:26:49.906Z,6.25
2023-05-03T06:28:22.182Z,6.45
2023-05-03T06:29:54.382Z,6.55
2023-05-03T06:31:26.482Z,6.40
2023-05-03T06:32:58.664Z,6.63
2023-05-03T06:34:30.891Z,5.88
2023-05-03T06:36:03.058Z,5.80
2023-05-03T06:37:35.664Z,5.95
2023-05-03T06:39:09.885Z,5.63
2023-05-03T06:40:42.059Z,5.97
2023-05-03T06:42:14.253Z,5.80
2023-05-03T06:43:46.827Z,5.50
2023-05-03T06:45:19.070Z,5.25
2023-05-03T06:46:51.978Z,5.78
2023-05-03T06:48:24.194Z,5.50
2023-05-03T06:49:59.510Z,5.97
2023-05-03T06:51:33.416Z,6.88
2023-05-03T06:53:05.562Z,6.22
2023-05-03T06:54:37.700Z,5.80
2023-05-03T06:56:09.899Z,5.85
2023-05-03T06:57:43.125Z,6.57
2023-05-03T06:59:15.398Z,5.85
2023-05-03T07:00:47.614Z,5.50
2023-05-03T07:02:19.664Z,5.97
2023-05-03T07:03:51.993Z,5.72
2023-05-03T07:05:24.282Z,6.75
2023-05-03T07:06:59.278Z,5.53
2023-05-03T07:08:31.882Z,5.75
2023-05-03T07:10:04.928Z,4.88
2023-05-03T07:14:43.817Z,4.30
2023-05-03T07:16:16.045Z,4.25
2023-05-03T07:17:48.189Z,4.78
2023-05-03T07:19:20.370Z,4.07
2023-05-03T07:20:52.401Z,4.90
2023-05-03T07:22:27.875Z,4.43
2023-05-03T07:24:00.356Z,4.22
2023-05-03T07:25:33.298Z,5.83
2023-05-03T07:27:05.657Z,4.63
2023-05-03T07:28:37.754Z,4.60
2023-05-03T07:30:10.851Z,4.95
2023-05-03T07:31:44.756Z,5.13
2023-05-03T07:33:17.085Z,6.00
2023-05-03T07:34:49.252Z,4.93
2023-05-03T07:36:21.432Z,3.95
2023-05-03T07:37:53.702Z,4.45
2023-05-03T07:39:25.805Z,4.88
2023-05-03T07:40:57.932Z,4.43
2023-05-03T07:42:30.129Z,4.40
2023-05-03T07:44:02.264Z,4.22
2023-05-03T07:45:34.453Z,4.43
2023-05-03T07:47:06.689Z,4.55
2023-05-03T07:48:38.870Z,4.60
2023-05-03T07:50:11.166Z,5.10
2023-05-03T07:51:43.324Z,5.55
2023-05-03T07:53:15.602Z,5.05
2023-05-03T07:54:47.731Z,4.60
2023-05-03T07:56:20.034Z,4.13
2023-05-03T07:57:52.557Z,3.90
2023-05-03T07:59:24.770Z,4.50
2023-05-03T08:00:57.440Z,4.65
2023-05-03T08:02:29.794Z,3.92
2023-05-03T08:04:02.358Z,3.70
2023-05-03T08:05:36.963Z,4.07
2023-05-03T08:07:09.296Z,3.80
2023-05-03T08:08:43.099Z,4.13
2023-05-03T08:10:15.745Z,4.93
2023-05-03T08:11:47.971Z,4.85
2023-05-03T08:13:20.133Z,4.72
2023-05-03T08:14:56.380Z,5.10
2023-05-03T08:16:28.611Z,5.15
2023-05-03T08:18:00.957Z,3.88
2023-05-03T08:19:33.138Z,4.07
2023-05-03T08:21:05.257Z,3.90
2023-05-03T08:22:38.681Z,4.60
2023-05-03T08:25:43.958Z,5.82
2023-05-03T08:27:16.278Z,4.80
2023-05-03T08:28:48.344Z,3.78
2023-05-03T08:30:22.502Z,6.82
2023-05-03T08:31:54.795Z,5.93
2023-05-03T08:33:26.947Z,5.65
2023-05-03T08:34:59.183Z,6.72
2023-05-03T08:36:32.251Z,5.03
2023-05-03T08:38:05.609Z,5.47
2023-05-03T08:41:17.823Z,4.78
2023-05-03T08:42:53.478Z,4.20
2023-05-03T08:44:29.785Z,5.10
2023-05-03T08:46:01.858Z,4.40
2023-05-03T08:47:37.950Z,4.72
2023-05-03T08:49:10.317Z,4.43
2023-05-03T08:50:42.930Z,4.10
2023-05-03T08:52:16.987Z,4.50
2023-05-03T08:53:49.666Z,4.80
2023-05-03T08:55:21.845Z,5.05
2023-05-03T08:56:54.258Z,4.35
2023-05-03T08:58:26.436Z,4.63
2023-05-03T09:00:02.172Z,4.68
2023-05-03T09:01:36.848Z,5.05
2023-05-03T09:03:09.249Z,4.45
2023-05-03T09:04:41.581Z,4.60
2023-05-03T09:06:26.433Z,3.60
2023-05-03T09:08:12.278Z,4.00
2023-05-03T09:09:46.902Z,3.72
2023-05-03T09:11:26.610Z,3.75
2023-05-03T09:13:02.869Z,3.80
2023-05-03T09:16:06.979Z,3.95
2023-05-03T09:17:39.176Z,4.93
2023-05-03T09:19:13.132Z,4.10
2023-05-03T09:20:52.739Z,4.18
2023-05-03T09:22:29.342Z,3.70
2023-05-03T09:24:02.231Z,4.75
2023-05-03T09:25:51.850Z,3.45
2023-05-03T09:27:25.159Z,3.70
2023-05-03T09:30:30.549Z,3.17
2023-05-03T09:32:07.948Z,3.30
2023-05-03T09:33:40.342Z,3.80
2023-05-03T09:35:14.157Z,4.05
2023-05-03T09:36:48.853Z,4.40
2023-05-03T09:38:32.550Z,3.80
2023-05-03T09:40:09.170Z,4.13
2023-05-03T09:41:41.325Z,3.60
2023-05-03T09:43:18.138Z,3.72
2023-05-03T09:44:54.398Z,3.75
2023-05-03T09:46:27.788Z,3.60
2023-05-03T09:49:33.435Z,3.75
2023-05-03T09:51:05.879Z,3.28
2023-05-03T09:52:38.690Z,3.30
2023-05-03T09:54:10.938Z,3.70
2023-05-03T09:55:43.071Z,3.78
2023-05-03T09:57:15.774Z,3.80
2023-05-03T09:58:48.279Z,3.80
2023-05-03T10:00:21.127Z,3.92
2023-05-03T10:01:57.108Z,3.67
2023-05-03T10:03:35.348Z,3.50
2023-05-03T10:05:08.532Z,4.30
2023-05-03T10:06:44.373Z,3.78
2023-05-03T10:08:27.225Z,3.60
2023-05-03T10:09:59.751Z,4.00
2023-05-03T10:11:34.600Z,3.47
2023-05-03T10:13:07.048Z,3.63
2023-05-03T10:14:43.630Z,3.50
2023-05-03T10:16:20.559Z,3.42
2023-05-03T10:17:53.579Z,3.63
2023-05-03T10:19:28.679Z,3.42
2023-05-03T10:21:12.175Z,3.35
2023-05-03T10:23:10.019Z,3.00
2023-05-03T10:25:00.795Z,2.85
2023-05-03T10:26:33.839Z,2.90
2023-05-03T10:28:07.632Z,3.10
2023-05-03T10:29:49.571Z,2.78
2023-05-03T10:31:48.097Z,3.45
2023-05-03T10:33:20.644Z,2.90
2023-05-03T10:35:09.726Z,3.22
2023-05-03T10:36:49.744Z,2.70
2023-05-03T10:38:24.745Z,3.20
2023-05-03T10:39:59.098Z,2.80
2023-05-03T10:41:33.721Z,3.08
2023-05-03T10:43:06.062Z,3.08
2023-05-03T10:44:50.198Z,2.60
2023-05-03T10:46:33.331Z,2.80
2023-05-03T10:48:11.561Z,3.15
2023-05-03T10:49:44.155Z,2.97
2023-05-03T10:51:29.394Z,3.35
2023-05-03T10:53:01.506Z,2.80
2023-05-03T10:54:33.750Z,2.78
2023-05-03T10:56:11.243Z,2.88
2023-05-03T10:57:44.676Z,3.45
2023-05-03T10:59:17.035Z,3.08
2023-05-03T11:00:50.985Z,3.22
2023-05-03T11:02:29.120Z,3.17
2023-05-03T11:05:35.382Z,2.90
2023-05-03T11:07:07.676Z,3.28
2023-05-03T11:08:39.787Z,2.65
2023-05-03T11:10:21.421Z,3.08
2023-05-03T11:11:53.525Z,2.92
2023-05-03T11:13:26.086Z,2.92
2023-05-03T11:14:58.205Z,3.03
2023-05-03T11:16:31.356Z,3.10
2023-05-03T11:19:35.954Z,3.10
2023-05-03T11:21:08.026Z,3.00
2023-05-03T11:22:40.302Z,2.90
2023-05-03T11:24:12.564Z,3.03
2023-05-03T11:25:44.683Z,3.10
2023-05-03T11:27:24.468Z,2.90
2023-05-03T11:28:56.590Z,3.05
2023-05-03T11:30:30.076Z,2.67
2023-05-03T11:32:02.255Z,3.15
2023-05-03T11:33:37.669Z,2.50
2023-05-03T11:35:10.536Z,2.80
2023-05-03T11:36:43.148Z,2.65
2023-05-03T11:38:15.375Z,2.80
2023-05-03T11:39:48.247Z,3.00
2023-05-03T11:41:20.348Z,2.90
2023-05-03T11:43:01.584Z,2.80
2023-05-03T11:44:33.674Z,2.90
2023-05-03T11:46:06.130Z,2.65
2023-05-03T11:47:39.315Z,3.03
2023-05-03T11:49:11.754Z,3.20
2023-05-03T11:50:57.500Z,2.63
2023-05-03T11:52:29.577Z,3.00
2023-05-03T11:54:12.937Z,2.92
2023-05-03T11:55:55.565Z,2.67
2023-05-03T11:57:30.819Z,2.40
2023-05-03T11:59:03.107Z,2.75
2023-05-03T12:00:37.321Z,3.13
2023-05-03T12:02:11.245Z,2.90
2023-05-03T12:03:43.587Z,2.67
2023-05-03T12:05:18.132Z,2.75
2023-05-03T12:06:54.229Z,2.75
2023-05-03T12:10:23.019Z,3.00
2023-05-03T12:11:58.882Z,3.10
2023-05-03T12:13:38.311Z,2.90
2023-05-03T12:15:15.982Z,2.90
2023-05-03T12:16:52.170Z,2.78
2023-05-03T12:18:24.966Z,2.80
2023-05-03T12:22:18.205Z,2.90
2023-05-03T12:23:50.644Z,3.10
2023-05-03T12:25:25.920Z,2.97
2023-05-03T12:27:01.424Z,3.13
2023-05-03T12:28:34.840Z,2.72
2023-05-03T12:30:09.369Z,2.92
2023-05-03T12:31:43.947Z,3.20
2023-05-03T12:33:17.351Z,3.50
2023-05-03T12:36:26.129Z,3.08
2023-05-03T12:38:01.551Z,2.70
2023-05-03T12:39:39.266Z,3.15
2023-05-03T12:41:15.793Z,3.25
2023-05-03T12:42:49.743Z,3.60
2023-05-03T12:44:23.649Z,3.10
2023-05-03T12:46:17.030Z,3.17
2023-05-03T12:47:51.744Z,3.25
2023-05-03T12:49:24.385Z,3.53
2023-05-03T12:51:17.172Z,3.22
2023-05-03T12:54:26.759Z,3.30
2023-05-03T12:55:59.472Z,2.90
2023-05-03T12:57:36.682Z,2.97
2023-05-03T13:01:37.955Z,3.20
2023-05-03T13:06:12.708Z,3.28
2023-05-03T13:07:53.776Z,3.10
2023-05-03T13:09:37.741Z,3.58
2023-05-03T13:11:20.502Z,3.58
2023-05-03T13:12:54.380Z,3.13
2023-05-03T13:14:28.952Z,3.60
2023-05-03T13:16:04.396Z,2.90
2023-05-03T13:17:36.686Z,3.03
2023-05-03T13:19:08.988Z,3.55
2023-05-03T13:20:41.193Z,3.22
2023-05-03T13:22:14.025Z,3.30
2023-05-03T13:23:47.906Z,3.20
2023-05-03T13:25:20.176Z,3.75
2023-05-03T13:26:52.212Z,3.65
2023-05-03T13:28:25.368Z,3.63
2023-05-03T13:29:57.621Z,3.72
2023-05-03T13:31:30.597Z,3.70
2023-05-03T13:33:02.879Z,3.35
2023-05-03T13:34:35.376Z,3.50
2023-05-03T13:36:11.710Z,3.33
2023-05-03T13:39:17.047Z,3.60
2023-05-03T13:40:49.231Z,3.75
2023-05-03T13:42:21.410Z,3.30
2023-05-03T13:43:53.554Z,3.40
2023-05-03T13:45:25.818Z,3.83
2023-05-03T13:46:58.061Z,3.70
2023-05-03T13:48:32.390Z,3.85
2023-05-03T13:50:05.434Z,3.92
2023-05-03T13:51:38.523Z,3.67
2023-05-03T13:53:10.816Z,3.65
2023-05-03T13:54:42.898Z,3.70
2023-05-03T13:56:15.552Z,3.80
2023-05-03T13:57:47.677Z,3.67
2023-05-03T13:59:19.783Z,3.38
2023-05-03T14:00:51.906Z,3.20
2023-05-03T14:02:24.077Z,3.75
2023-05-03T14:03:56.509Z,3.50
2023-05-03T14:05:28.809Z,3.17
2023-05-03T14:07:03.598Z,3.65
2023-05-03T14:08:35.854Z,3.47
2023-05-03T14:10:09.438Z,3.40
2023-05-03T14:11:42.063Z,3.53
2023-05-03T14:13:14.294Z,3.33
2023-05-03T14:14:46.477Z,3.72
2023-05-03T14:16:35.595Z,3.90
2023-05-03T14:18:12.328Z,4.05
2023-05-03T14:19:44.514Z,3.90
2023-05-03T14:21:18.954Z,4.25
2023-05-03T14:22:51.770Z,4.15
2023-05-03T14:24:23.865Z,4.43
2023-05-03T14:25:56.081Z,5.18
2023-05-03T14:27:28.442Z,6.43
2023-05-03T14:29:00.847Z,10.05
2023-05-03T14:30:33.617Z,6.68
2023-05-03T14:32:06.105Z,8.60
2023-05-03T14:33:38.193Z,7.57
2023-05-03T14:35:10.612Z,8.10
2023-05-03T14:36:44.170Z,6.93
2023-05-03T14:38:16.323Z,8.75
2023-05-03T14:39:48.664Z,10.07
2023-05-03T14:41:22.691Z,8.97
2023-05-03T14:42:55.081Z,7.90
2023-05-03T14:44:27.261Z,9.88
2023-05-03T14:45:59.401Z,9.45
2023-05-03T14:47:31.632Z,9.10
2023-05-03T14:49:03.904Z,9.20
2023-05-03T14:50:36.271Z,9.40
2023-05-03T14:52:09.266Z,9.00
2023-05-03T14:53:41.373Z,9.35
2023-05-03T14:55:13.462Z,8.52
2023-05-03T14:56:45.750Z,8.63
2023-05-03T14:58:17.914Z,7.13
2023-05-03T14:59:50.066Z,6.50
2023-05-03T15:01:22.731Z,7.57
2023-05-03T15:02:56.592Z,8.82
2023-05-03T15:04:29.525Z,7.47
2023-05-03T15:06:01.657Z,8.35
2023-05-03T15:07:34.873Z,8.68
2023-05-03T15:09:08.879Z,8.70
2023-05-03T15:10:41.907Z,8.30
2023-05-03T15:12:14.616Z,7.85
2023-05-03T15:13:47.308Z,7.30
2023-05-03T15:15:19.658Z,7.90
2023-05-03T15:16:51.989Z,7.60
2023-05-03T15:18:25.049Z,7.32
2023-05-03T15:19:57.634Z,6.47
2023-05-03T15:21:29.723Z,7.00
2023-05-03T15:23:02.832Z,7.00
2023-05-03T15:24:35.073Z,7.13
2023-05-03T15:26:07.551Z,6.47
2023-05-03T15:27:39.659Z,7.07
2023-05-03T15:29:11.818Z,6.80
2023-05-03T15:30:43.901Z,6.95
2023-05-03T15:32:16.470Z,9.13
2023-05-03T15:33:48.603Z,6.47
2023-05-03T15:35:21.633Z,6.75
2023-05-03T15:36:53.959Z,6.10
2023-05-03T15:38:26.149Z,5.82
2023-05-03T15:39:58.282Z,6.22
2023-05-03T15:41:30.363Z,6.68
2023-05-03T15:43:02.538Z,6.88
2023-05-03T15:44:34.676Z,7.22
2023-05-03T15:46:07.238Z,7.50
2023-05-03T15:47:42.917Z,7.00
2023-05-03T15:49:15.154Z,6.60
2023-05-03T15:50:47.261Z,7.30
2023-05-03T15:52:19.370Z,7.13
2023-05-03T15:53:52.369Z,7.53
2023-05-03T15:55:24.554Z,6.97
2023-05-03T15:56:56.783Z,6.78
2023-05-03T15:58:30.765Z,7.53
2023-05-03T16:00:03.843Z,7.68
2023-05-03T16:03:09.752Z,6.83
2023-05-03T16:04:41.973Z,7.50
2023-05-03T16:06:17.215Z,7.80
2023-05-03T16:07:49.820Z,7.28
2023-05-03T16:09:23.181Z,7.70
2023-05-03T16:12:27.864Z,8.57
2023-05-03T16:13:59.965Z,8.50
2023-05-03T16:15:32.181Z,8.45
2023-05-03T16:17:04.520Z,9.02
2023-05-03T16:18:36.638Z,8.02
2023-05-03T16:20:12.801Z,7.85
2023-05-03T16:21:44.909Z,7.32
2023-05-03T16:23:17.327Z,7.70
2023-05-03T16:24:49.635Z,7.07
2023-05-03T16:26:21.978Z,7.10
2023-05-03T16:27:54.410Z,7.03
2023-05-03T16:29:26.899Z,6.57
2023-05-03T16:30:59.002Z,7.05
2023-05-03T16:32:31.134Z,7.50
2023-05-03T16:34:03.268Z,7.07
2023-05-03T16:35:35.605Z,7.10
2023-05-03T16:37:07.725Z,6.85
2023-05-03T16:38:40.708Z,7.03
2023-05-03T16:40:12.957Z,7.53
2023-05-03T16:41:45.120Z,6.80
2023-05-03T16:43:18.854Z,7.30
2023-05-03T16:46:23.811Z,7.35
2023-05-03T16:47:56.426Z,6.78
2023-05-03T16:49:28.785Z,7.63
2023-05-03T16:51:01.215Z,6.90
2023-05-03T16:52:37.997Z,6.93
2023-05-03T16:54:10.258Z,7.45
2023-05-03T16:55:42.550Z,7.28
2023-05-03T16:57:14.821Z,7.28
2023-05-03T16:58:47.367Z,7.20
2023-05-03T17:00:21.409Z,7.30
2023-05-03T17:01:53.555Z,7.22
2023-05-03T17:03:26.260Z,8.20
2023-05-03T17:04:58.808Z,8.40
2023-05-03T17:06:30.924Z,8.68
2023-05-03T17:08:03.440Z,8.70
2023-05-03T17:09:35.491Z,8.20
2023-05-03T17:11:13.999Z,8.70
2023-05-03T17:12:48.158Z,7.65
2023-05-03T17:14:21.308Z,8.57
2023-05-03T17:15:53.462Z,7.57
2023-05-03T17:17:25.594Z,8.40
2023-05-03T17:18:57.976Z,7.95
2023-05-03T17:20:30.481Z,7.82
2023-05-03T17:22:02.562Z,7.40
2023-05-03T17:23:38.827Z,7.28
2023-05-03T17:25:11.199Z,8.15
2023-05-03T17:26:43.294Z,7.63
2023-05-03T17:28:15.462Z,6.95
2023-05-03T17:29:47.948Z,6.95
2023-05-03T17:31:20.027Z,7.23
2023-05-03T17:32:52.179Z,7.43
2023-05-03T17:34:25.437Z,8.38
2023-05-03T17:35:57.593Z,7.75
2023-05-03T17:37:29.830Z,7.38
2023-05-03T17:39:02.444Z,7.30
2023-05-03T17:40:35.386Z,8.80
2023-05-03T17:42:08.499Z,7.35
2023-05-03T17:43:40.697Z,7.65
2023-05-03T17:45:14.336Z,8.05
2023-05-03T17:46:46.604Z,9.18
2023-05-03T17:48:18.802Z,8.77
2023-05-03T17:49:51.037Z,9.43
2023-05-03T17:51:23.235Z,8.00
2023-05-03T17:52:55.417Z,7.57
2023-05-03T17:54:30.860Z,8.10
2023-05-03T17:56:02.954Z,9.45
2023-05-03T17:57:37.258Z,9.00
2023-05-03T17:59:09.371Z,8.77
2023-05-03T18:00:41.628Z,11.30
2023-05-03T18:02:14.101Z,9.35
2023-05-03T18:03:46.330Z,10.00
2023-05-03T18:05:18.811Z,10.77
2023-05-03T18:06:50.961Z,11.63
2023-05-03T18:08:23.306Z,10.45
2023-05-03T18:09:55.581Z,12.90
2023-05-03T18:11:27.818Z,11.50
2023-05-03T18:12:59.977Z,10.00
2023-05-03T18:14:35.829Z,9.57
2023-05-03T18:16:08.633Z,8.50
2023-05-03T18:17:40.796Z,8.98
2023-05-03T18:19:13.736Z,9.27
2023-05-03T18:20:45.856Z,8.57
2023-05-03T18:22:17.957Z,9.38
2023-05-03T18:23:50.132Z,9.02
2023-05-03T18:25:22.286Z,9.48
2023-05-03T18:26:54.378Z,9.65
2023-05-03T18:28:26.507Z,9.55
2023-05-03T18:29:58.603Z,9.02
2023-05-03T18:31:30.751Z,8.55
2023-05-03T18:33:03.030Z,9.00
2023-05-03T18:34:37.759Z,9.77
2023-05-03T18:36:12.005Z,9.50
2023-05-03T18:37:44.130Z,10.20
2023-05-03T18:39:17.513Z,10.45
2023-05-03T18:42:23.912Z,8.57
2023-05-03T18:43:57.843Z,8.75
2023-05-03T18:45:29.983Z,8.65
